| time (UTC) | temp F | wind direction | speed knots | gust knots | rain 1hr in | rain 24hr in | rain mn in | humidity % | barometer mb |
| 20260505195207 | 80 | 133 | 5.2 | 15.6 | 0.00 | 0.00 | 0.00 | 43 | 1012.1 |
| 20260505194104 | 80 | 152 | 5.2 | 15.6 | 0.00 | 0.00 | 0.00 | 42 | 1012.1 |
| 20260505193002 | 79 | 188 | 3.5 | 14.8 | 0.00 | 0.00 | 0.00 | 43 | 1012.1 |
| 20260505191859 | 78 | 229 | 4.3 | 11.3 | 0.00 | 0.00 | 0.00 | 43 | 1012.5 |
| 20260505190757 | 79 | 147 | 4.3 | 9.6 | 0.00 | 0.00 | 0.00 | 44 | 1012.8 |
| 20260505185654 | 79 | 141 | 2.6 | 14.8 | 0.00 | 0.00 | 0.00 | 47 | 1012.8 |
| 20260505184552 | 78 | 160 | 4.3 | 13.0 | 0.00 | 0.00 | 0.00 | 46 | 1012.8 |
| 20260505183449 | 78 | 122 | 4.3 | 13.9 | 0.00 | 0.00 | 0.00 | 43 | 1013.5 |
| 20260505182347 | 78 | 175 | 3.5 | 15.6 | 0.00 | 0.00 | 0.00 | 45 | 1013.5 |
| 20260505181244 | 78 | 225 | 3.5 | 9.6 | 0.00 | 0.00 | 0.00 | 47 | 1013.5 |
| 20260505180142 | 78 | 173 | 7.0 | 10.4 | 0.00 | 0.00 | 0.00 | 46 | 1013.8 |
| 20260505175040 | 77 | 195 | 4.3 | 13.0 | 0.00 | 0.00 | 0.00 | 46 | 1014.2 |
| 20260505173937 | 77 | 202 | 1.7 | 10.4 | 0.00 | 0.00 | 0.00 | 47 | 1014.2 |
| 20260505172835 | 76 | 198 | 6.1 | 12.2 | 0.00 | 0.00 | 0.00 | 48 | 1014.2 |
| 20260505171733 | 77 | 150 | 4.3 | 10.4 | 0.00 | 0.00 | 0.00 | 45 | 1014.5 |
| 20260505170630 | 76 | 179 | 6.1 | 7.8 | 0.00 | 0.00 | 0.00 | 48 | 1014.9 |
| 20260505165527 | 76 | 168 | 0.9 | 11.3 | 0.00 | 0.00 | 0.00 | 49 | 1014.9 |
| 20260505164425 | 76 | 62 | 2.6 | 12.2 | 0.00 | 0.00 | 0.00 | 51 | 1014.9 |
| 20260505163323 | 75 | 171 | 4.3 | 10.4 | 0.00 | 0.00 | 0.00 | 53 | 1014.9 |
| 20260505162221 | 75 | 73 | 2.6 | 7.8 | 0.00 | 0.00 | 0.00 | 55 | 1014.9 |
| 20260505161118 | 74 | 210 | 3.5 | 7.0 | 0.00 | 0.00 | 0.00 | 55 | 1014.9 |
| 20260505152709 | 73 | 167 | 1.7 | 6.1 | 0.00 | 0.00 | 0.00 | 59 | 1014.9 |
| 20260505151607 | 72 | 179 | 1.7 | 6.1 | 0.00 | 0.00 | 0.00 | 58 | 1014.9 |
| 20260505150504 | 71 | 175 | 0.0 | 7.0 | 0.00 | 0.00 | 0.00 | 62 | 1014.9 |
| 20260505124133 | 59 | 187 | 0.0 | 0.0 | 0.00 | 0.00 | 0.00 | 85 | 1014.5 |
| 20260505123031 | 59 | 187 | 0.0 | 2.6 | 0.00 | 0.00 | 0.00 | 86 | 1014.2 |
| 20260505121929 | 58 | 22 | 0.0 | 1.7 | 0.00 | 0.00 | 0.00 | 90 | 1014.2 |
| 20260505120826 | 56 | 146 | 0.0 | 1.7 | 0.00 | 0.00 | 0.00 | 91 | 1014.2 |
| 20260505115724 | 55 | 111 | 0.0 | 3.5 | 0.00 | 0.00 | 0.00 | 92 | 1013.8 |
| 20260505114621 | 53 | 161 | 1.7 | 3.5 | 0.00 | 0.00 | 0.00 | 92 | 1013.8 |
| 20260505113519 | 53 | 165 | 0.0 | 1.7 | 0.00 | 0.00 | 0.00 | 94 | 1013.5 |
| 20260505112416 | 51 | 128 | 0.9 | 1.7 | 0.00 | 0.00 | 0.00 | 95 | 1013.5 |
| 20260505111314 | 51 | 139 | 0.0 | 0.0 | 0.00 | 0.00 | 0.00 | 96 | 1013.2 |
| 20260505110212 | 51 | 60 | 0.0 | 0.0 | 0.00 | 0.00 | 0.00 | 97 | 1013.2 |
| 20260505101805 | 51 | 60 | 0.0 | 0.0 | 0.00 | 0.00 | 0.00 | 95 | 1012.8 |
| 20260505100702 | 51 | 60 | 0.0 | 0.0 | 0.00 | 0.00 | 0.00 | 94 | 1013.2 |
| 20260505095600 | 51 | 60 | 0.0 | 0.0 | 0.00 | 0.00 | 0.00 | 93 | 1013.2 |
| 20260505094457 | 51 | 60 | 0.0 | 0.9 | 0.00 | 0.00 | 0.00 | 93 | 1013.2 |
| 20260505093355 | 52 | 241 | 0.0 | 0.9 | 0.00 | 0.00 | 0.00 | 92 | 1012.8 |
| 20260505092252 | 53 | 88 | 0.0 | 0.0 | 0.00 | 0.00 | 0.00 | 91 | 1012.8 |
| 20260505091150 | 53 | 88 | 0.0 | 0.0 | 0.00 | 0.00 | 0.00 | 89 | 1012.8 |
| 20260505090047 | 53 | 190 | 0.0 | 0.0 | 0.00 | 0.00 | 0.00 | 89 | 1012.8 |
| 20260505084945 | 53 | 121 | 0.0 | 2.6 | 0.00 | 0.00 | 0.00 | 89 | 1012.8 |
| 20260505083843 | 54 | 203 | 0.0 | 0.0 | 0.00 | 0.00 | 0.00 | 87 | 1012.8 |
| 20260505082741 | 54 | 203 | 0.0 | 3.5 | 0.00 | 0.00 | 0.00 | 86 | 1013.2 |
| 20260505081639 | 54 | 91 | 0.0 | 0.9 | 0.00 | 0.00 | 0.00 | 86 | 1013.2 |
| 20260505080536 | 54 | 151 | 0.0 | 0.0 | 0.00 | 0.00 | 0.00 | 86 | 1013.2 |
| 20260505075434 | 54 | 196 | 0.0 | 2.6 | 0.00 | 0.00 | 0.00 | 86 | 1013.2 |
| 20260505074331 | 53 | 127 | 0.0 | 1.7 | 0.00 | 0.00 | 0.00 | 88 | 1013.2 |
| 20260505073229 | 53 | 142 | 0.0 | 2.6 | 0.00 | 0.00 | 0.00 | 90 | 1013.2 |
| 20260505072127 | 53 | 180 | 0.9 | 0.0 | 0.00 | 0.00 | 0.00 | 91 | 1013.2 |
| 20260505071024 | 53 | 153 | 0.0 | 0.0 | 0.00 | 0.00 | 0.00 | 88 | 1013.2 |
| 20260505065922 | 54 | 153 | 0.0 | 0.0 | 0.00 | 0.00 | 0.00 | 87 | 1013.2 |
| 20260505064820 | 55 | 153 | 0.0 | 0.0 | 0.00 | 0.00 | 0.00 | 85 | 1013.2 |
| 20260505063717 | 56 | 153 | 0.0 | 0.0 | 0.00 | 0.00 | 0.00 | 81 | 1013.2 |
| 20260505062615 | 57 | 153 | 0.0 | 0.0 | 0.00 | 0.00 | 0.00 | 77 | 1013.5 |
| 20260505061512 | 58 | 153 | 0.0 | 0.0 | 0.00 | 0.00 | 0.00 | 74 | 1013.5 |
| 20260505060410 | 59 | 153 | 0.0 | 0.9 | 0.00 | 0.00 | 0.00 | 71 | 1013.2 |
| 20260505055308 | 60 | 189 | 0.0 | 3.5 | 0.00 | 0.00 | 0.00 | 69 | 1013.2 |
| 20260505054205 | 60 | 117 | 0.0 | 5.2 | 0.00 | 0.00 | 0.00 | 69 | 1013.2 |
| 20260505053103 | 61 | 158 | 3.5 | 4.3 | 0.00 | 0.00 | 0.00 | 68 | 1013.2 |
| 20260505052000 | 61 | 171 | 1.7 | 7.0 | 0.00 | 0.00 | 0.00 | 69 | 1013.2 |
| 20260505050858 | 61 | 182 | 2.6 | 6.1 | 0.00 | 0.00 | 0.00 | 70 | 1013.2 |
| 20260505041346 | 57 | 195 | 1.7 | 2.6 | 0.00 | 0.00 | 0.00 | 84 | 1013.2 |
| 20260505040244 | 56 | 107 | 0.0 | 0.9 | 0.00 | 0.00 | 0.00 | 83 | 1013.2 |
| 20260505035142 | 57 | 98 | 0.0 | 0.0 | 0.00 | 0.00 | 0.00 | 82 | 1013.2 |
| 20260505034039 | 57 | 98 | 0.0 | 0.0 | 0.00 | 0.00 | 0.00 | 81 | 1013.2 |
| 20260505032937 | 57 | 98 | 0.0 | 0.0 | 0.00 | 0.00 | 0.00 | 83 | 1013.2 |
| 20260505031834 | 57 | 98 | 0.0 | 0.0 | 0.00 | 0.00 | 0.00 | 80 | 1013.2 |
| 20260505030732 | 57 | 98 | 0.0 | 0.0 | 0.00 | 0.00 | 0.00 | 80 | 1013.5 |
| 20260505024529 | 57 | 98 | 0.0 | 0.0 | 0.00 | 0.00 | 0.00 | 78 | 1013.5 |
| 20260505023427 | 58 | 98 | 0.0 | 0.0 | 0.00 | 0.00 | 0.00 | 77 | 1013.5 |
| 20260505022325 | 58 | 98 | 0.0 | 0.0 | 0.00 | 0.00 | 0.00 | 76 | 1013.5 |
| 20260505021223 | 59 | 98 | 0.0 | 0.0 | 0.00 | 0.00 | 0.00 | 74 | 1013.2 |
| 20260505020120 | 59 | 98 | 0.0 | 0.0 | 0.00 | 0.00 | 0.00 | 73 | 1013.2 |
| 20260505015018 | 60 | 98 | 0.0 | 0.0 | 0.00 | 0.00 | 0.00 | 70 | 1013.2 |
| 20260505013915 | 61 | 98 | 0.0 | 0.0 | 0.00 | 0.00 | 0.00 | 68 | 1013.2 |
| 20260505012813 | 63 | 98 | 0.0 | 0.0 | 0.00 | 0.00 | 0.00 | 64 | 1012.8 |
| 20260505011710 | 64 | 98 | 0.0 | 0.0 | 0.00 | 0.00 | 0.00 | 62 | 1012.8 |
| 20260505010608 | 66 | 98 | 0.0 | 0.9 | 0.00 | 0.00 | 0.00 | 58 | 1012.8 |
| 20260505005506 | 68 | 115 | 0.0 | 0.0 | 0.00 | 0.00 | 0.00 | 55 | 1012.8 |
| 20260505004403 | 69 | 116 | 0.9 | 1.7 | 0.00 | 0.00 | 0.00 | 52 | 1012.8 |
| 20260505003300 | 70 | 182 | 2.6 | 5.2 | 0.00 | 0.00 | 0.00 | 51 | 1012.8 |
| 20260505002158 | 70 | 127 | 1.7 | 4.3 | 0.00 | 0.00 | 0.00 | 51 | 1012.5 |
| 20260505001055 | 71 | 139 | 3.5 | 7.0 | 0.00 | 0.00 | 0.00 | 50 | 1012.5 |
| 20260504235953 | 72 | 114 | 1.7 | 8.7 | 0.00 | 0.00 | 0.00 | 50 | 1012.5 |
| 20260504234851 | 73 | 185 | 4.3 | 8.7 | 0.00 | 0.00 | 0.00 | 50 | 1012.1 |
| 20260504233748 | 74 | 50 | 0.9 | 4.3 | 0.00 | 0.00 | 0.00 | 50 | 1012.1 |
| 20260504232646 | 75 | 144 | 4.3 | 7.0 | 0.00 | 0.00 | 0.00 | 48 | 1012.5 |
| 20260504231543 | 75 | 173 | 2.6 | 11.3 | 0.00 | 0.00 | 0.00 | 48 | 1012.5 |
| 20260504230441 | 76 | 230 | 1.7 | 9.6 | 0.00 | 0.00 | 0.00 | 50 | 1012.5 |
| 20260504225339 | 76 | 88 | 2.6 | 7.0 | 0.00 | 0.00 | 0.00 | 48 | 1012.5 |
| 20260504224236 | 77 | 182 | 3.5 | 7.8 | 0.00 | 0.00 | 0.00 | 48 | 1012.5 |
| 20260504223134 | 77 | 158 | 4.3 | 7.8 | 0.00 | 0.00 | 0.00 | 47 | 1012.5 |
| 20260504222032 | 77 | 197 | 4.3 | 7.8 | 0.00 | 0.00 | 0.00 | 48 | 1012.5 |
| 20260504220929 | 78 | 196 | 4.3 | 7.0 | 0.00 | 0.00 | 0.00 | 48 | 1012.5 |
| 20260504215827 | 78 | 186 | 2.6 | 6.1 | 0.00 | 0.00 | 0.00 | 48 | 1012.5 |
| 20260504214724 | 78 | 125 | 2.6 | 7.8 | 0.00 | 0.00 | 0.00 | 47 | 1012.5 |
| 20260504213622 | 78 | 101 | 1.7 | 9.6 | 0.00 | 0.00 | 0.00 | 48 | 1012.5 |
| 20260504212519 | 78 | 206 | 3.5 | 6.1 | 0.00 | 0.00 | 0.00 | 47 | 1012.5 |
| 20260504211417 | 78 | 159 | 3.5 | 7.8 | 0.00 | 0.00 | 0.00 | 48 | 1012.5 |
| 20260504210314 | 78 | 219 | 3.5 | 7.0 | 0.00 | 0.00 | 0.00 | 46 | 1012.8 |
| 20260504205212 | 79 | 185 | 4.3 | 6.1 | 0.00 | 0.00 | 0.00 | 44 | 1012.8 |
| 20260504204110 | 79 | 153 | 2.6 | 7.8 | 0.00 | 0.00 | 0.00 | 46 | 1013.2 |
| 20260504203007 | 79 | 224 | 1.7 | 14.8 | 0.00 | 0.00 | 0.00 | 46 | 1013.2 |
| 20260504201905 | 79 | 319 | 2.6 | 10.4 | 0.00 | 0.00 | 0.00 | 44 | 1013.2 |
| 20260504200803 | 80 | 180 | 3.5 | 9.6 | 0.00 | 0.00 | 0.00 | 45 | 1013.2 |
| 20260504195701 | 80 | 152 | 2.6 | 10.4 | 0.00 | 0.00 | 0.00 | 45 | 1013.2 |